Strona główna
METAR-TAF:

METAR-TAF

Lotnisko :

Port lotniczy Flores

Flores, Azory, Portugalia

Szerokość geograficzna: 39-27N, Długość geograficzna: 031-08W, wysokość: 28 m

Aktualna obserwacja pogody

Raport powstał 9 godziny i 56 minut temu, godzina 18:00 UTC
Wiatr 16 kt od północ
Temperatura 22°C
Wilgotność 88%
Ciśnienie 1014 hPa
Widzialność 10 km lub więcej
Mało chmury na wysokości 600 ft
Przerywane chmury na wysokości 1000 ft
Przerywane chmury na wysokości 2200 ft

METAR: LPFL 241800Z 36016KT 9999 FEW006 BKN010 BKN022 22/20 Q1014

czas: 03:56 (03:56 UTC)


TAF: brakujący

Obserwacja i prognoza pogody dla ponad 4000 lotnisk (raport METAR i TAF).

Dostępne stacje oznaczono żółtymi i czerwonymi punktami na mapie.

Najedź kursorem aby zobaczyć nazwę stacji.

Kliknij aby zobaczyć obserwacje i prognozy pogody.

Aby zmienić mapę: kliknij na zielony przycisk z czarnym krzyżykiem, aby powiększyć; na zielony przycisk z myślnikiem, aby pomniejszyć; na zielone strzałki, aby przejść do map sąsiednich.


METAR-TAF: